Home   Weather   USA   Pensacola   Past weeks
Flag for USA

Past Weather in Pensacola, Florida, USA — Yesterday and Last 2 Weeks

Currently: 79 °F. Sunny. (Weather station: Pensacola Regional Airport, USA). See more current weather

Past Weather in Pensacola — Graph

°F

Pensacola Temperature Yesterday

Maximum temperature yesterday: 75 °F (at 11:58 am)
Minimum temperature yesterday: 61 °F (at 10:53 pm)
Average temperature yesterday: 66 °F

High & Low Weather Summary for the Past Weeks

 TemperatureHumidityPressure
High81 °F (Feb 26, 12:53 pm)100% (Feb 12, 1:53 am)30.42 "Hg (Feb 12, 1:53 am)
Low27 °F (Feb 16, 9:02 am)24% (Feb 23, 1:53 pm)29.72 "Hg (Feb 15, 11:53 am)
Average55 °F81%30.06 "Hg
* Reported Feb 11 1:34 pm — Feb 26 1:53 pm, Pensacola. Weather by CustomWeather, © 2021

Note: Actual official high and low records may vary slightly from our data, if they occured in-between our weather recording intervals... More about our weather records

Pensacola Weather History for the Previous 24 Hours

Scroll right to see more
 ConditionsComfort  
Time TempWeatherWind HumidityBarometerVisibility
1:53 pm
Fri, Feb 26
79 °FSunny.16 mph69%30.07 "Hg10 mi
12:53 pm81 °FSunny.17 mph67%30.10 "Hg10 mi
11:53 am78 °FScattered clouds.16 mph71%30.13 "Hg10 mi
11:00 am77 °FBroken clouds.13 mph77%30.13 "Hg10 mi
10:23 am75 °FPartly sunny.10 mph79%30.13 "Hg10 mi
10:15 am75 °FBroken clouds.13 mph76%30.13 "Hg10 mi
9:53 am73 °FMostly cloudy.8 mph81%30.14 "Hg10 mi
8:53 am68 °FLow clouds.6 mph96%30.14 "Hg10 mi
7:53 am67 °FLow clouds.6 mph100%30.12 "Hg8 mi
7:30 am66 °FFog.6 mph100%30.10 "Hg6 mi
7:04 am66 °FFog.9 mph96%30.08 "Hg4 mi
6:53 am65 °FFog.7 mph100%30.09 "Hg2 mi
5:53 am65 °FFog.5 mph97%30.07 "Hg1 mi
4:53 am64 °FFog.3 mph97%30.07 "Hg1 mi
3:53 am64 °FFog.3 mph97%30.06 "Hg0 mi
3:38 am64 °FFog.3 mph97%30.04 "Hg0 mi
3:21 am63 °FFog.No wind100%30.05 "Hg0 mi
2:43 am64 °FFog.6 mph100%30.05 "Hg2 mi
1:53 am65 °FFog.5 mph100%30.08 "Hg4 mi
1:36 am65 °FFog.5 mph100%30.08 "Hg1 mi
1:11 am65 °FFog.6 mph97%30.09 "Hg1 mi
1:01 am65 °FFog.3 mph100%30.10 "Hg0 mi
12:20 am65 °FFog.5 mph97%30.09 "Hg0 mi
11:54 pm
Thu, Feb 25
62 °FFog.5 mph96%30.09 "Hg3 mi
11:41 pm61 °FFog.3 mph97%30.09 "Hg2 mi
10:53 pm61 °FFog.5 mph100%30.11 "Hg4 mi
9:53 pm63 °FPassing clouds.No wind97%30.13 "Hg8 mi
8:53 pm64 °FClear.3 mph90%30.14 "Hg10 mi
7:53 pm66 °FClear.5 mph87%30.14 "Hg10 mi
6:53 pm66 °FClear.3 mph81%30.13 "Hg10 mi
5:53 pm68 °FClear.7 mph76%30.12 "Hg10 mi
4:56 pm75 °FPassing clouds.9 mph54%30.12 "Hg10 mi
3:58 pm73 °FPassing clouds.9 mphN/A30.13 "Hg10 mi
Weather by CustomWeather, © 2021

See weather overview